createdAt,value
2019-04-07T00:00:59.757Z,976.86
2019-04-07T00:01:59.679Z,976.85
2019-04-07T00:03:00.205Z,976.82
2019-04-07T00:03:59.808Z,976.83
2019-04-07T00:05:10.076Z,976.82
2019-04-07T00:05:59.776Z,976.76
2019-04-07T00:06:59.646Z,976.78
2019-04-07T00:07:59.642Z,976.79
2019-04-07T00:08:59.631Z,976.81
2019-04-07T00:09:59.623Z,976.8
2019-04-07T00:11:00.180Z,976.79
2019-04-07T00:11:59.613Z,976.84
2019-04-07T00:12:59.623Z,976.84
2019-04-07T00:14:00.215Z,976.81
2019-04-07T00:14:59.594Z,976.79
2019-04-07T00:16:00.299Z,976.87
2019-04-07T00:16:59.628Z,976.84
2019-04-07T00:17:59.574Z,976.83
2019-04-07T00:19:00.113Z,976.81
2019-04-07T00:19:59.559Z,976.79
2019-04-07T00:21:00.182Z,976.81
2019-04-07T00:21:59.547Z,976.79
2019-04-07T00:22:59.539Z,976.8
2019-04-07T00:24:01.643Z,976.79
2019-04-07T00:24:59.590Z,976.79
2019-04-07T00:26:00.148Z,976.81
2019-04-07T00:26:59.792Z,976.83
2019-04-07T00:27:59.706Z,976.77
2019-04-07T00:28:59.957Z,976.85
2019-04-07T00:30:00.009Z,976.87
2019-04-07T00:30:59.553Z,976.88
2019-04-07T00:31:59.968Z,976.88
2019-04-07T00:32:59.632Z,976.91
2019-04-07T00:33:59.470Z,976.88
2019-04-07T00:34:59.947Z,976.88
2019-04-07T00:35:59.452Z,976.88
2019-04-07T00:36:59.972Z,976.9
2019-04-07T00:37:59.489Z,976.83
2019-04-07T00:38:59.496Z,976.83
2019-04-07T00:39:59.428Z,976.86
2019-04-07T00:40:59.421Z,976.83
2019-04-07T00:41:59.415Z,976.81
2019-04-07T00:42:59.900Z,976.84
2019-04-07T00:43:59.978Z,976.84
2019-04-07T00:44:59.690Z,976.87
2019-04-07T00:45:59.387Z,976.86
2019-04-07T00:46:59.817Z,976.83
2019-04-07T00:47:59.403Z,976.89
2019-04-07T00:48:59.573Z,976.92
2019-04-07T00:49:59.815Z,976.9
2019-04-07T00:50:59.352Z,976.91
2019-04-07T00:51:59.624Z,976.89
2019-04-07T00:52:59.338Z,976.89
2019-04-07T00:53:59.731Z,976.89
2019-04-07T00:54:59.325Z,976.89
2019-04-07T00:55:59.454Z,976.86
2019-04-07T00:56:59.426Z,976.84
2019-04-07T00:57:59.442Z,976.85
2019-04-07T00:58:59.780Z,976.81
2019-04-07T00:59:59.476Z,976.87
2019-04-07T01:00:59.764Z,976.83
2019-04-07T01:01:59.275Z,976.8
2019-04-07T01:02:59.424Z,976.82
2019-04-07T01:03:59.779Z,976.82
2019-04-07T01:04:59.284Z,976.82
2019-04-07T01:05:59.246Z,976.83
2019-04-07T01:06:59.258Z,976.8
2019-04-07T01:07:59.261Z,976.79
2019-04-07T01:08:59.228Z,976.82
2019-04-07T01:09:59.578Z,976.82
2019-04-07T01:10:59.214Z,976.83
2019-04-07T01:11:59.536Z,976.82
2019-04-07T01:12:59.216Z,976.8
2019-04-07T01:13:59.192Z,976.82
2019-04-07T01:14:59.621Z,976.8
2019-04-07T01:15:59.177Z,976.76
2019-04-07T01:16:59.433Z,976.79
2019-04-07T01:17:59.167Z,976.74
2019-04-07T01:18:59.197Z,976.74
2019-04-07T01:19:59.703Z,976.71
2019-04-07T01:20:59.508Z,976.71
2019-04-07T01:21:59.136Z,976.7
2019-04-07T01:22:59.139Z,976.74
2019-04-07T01:23:59.120Z,976.77
2019-04-07T01:24:59.439Z,976.78
2019-04-07T01:25:59.104Z,976.79
2019-04-07T01:26:59.106Z,976.78
2019-04-07T01:27:59.307Z,976.74
2019-04-07T01:28:59.239Z,976.78
2019-04-07T01:29:59.573Z,976.79
2019-04-07T01:30:59.114Z,976.8
2019-04-07T01:31:59.418Z,976.73
2019-04-07T01:32:59.056Z,976.74
2019-04-07T01:33:59.542Z,976.74
2019-04-07T01:34:59.643Z,976.72
2019-04-07T01:35:59.775Z,976.7
2019-04-07T01:36:59.031Z,976.71
2019-04-07T01:37:59.792Z,976.72
2019-04-07T01:38:59.036Z,976.7
2019-04-07T01:39:59.265Z,976.71
2019-04-07T01:40:59.001Z,976.72
2019-04-07T01:41:58.992Z,976.75
2019-04-07T01:42:58.984Z,976.74
2019-04-07T01:43:58.976Z,976.74
2019-04-07T01:44:59.275Z,976.71
2019-04-07T01:45:58.963Z,976.74
2019-04-07T01:46:58.966Z,976.73
2019-04-07T01:47:59.438Z,976.76
2019-04-07T01:48:58.942Z,976.74
2019-04-07T01:49:58.943Z,976.81
2019-04-07T01:50:59.306Z,976.82
2019-04-07T01:51:58.921Z,976.85
2019-04-07T01:52:59.206Z,976.84
2019-04-07T01:53:58.907Z,976.84
2019-04-07T01:54:59.020Z,976.86
2019-04-07T01:55:58.891Z,976.84
2019-04-07T01:56:59.074Z,976.84
2019-04-07T01:57:58.876Z,976.83
2019-04-07T01:58:58.870Z,976.79
2019-04-07T01:59:58.869Z,976.84
2019-04-07T02:00:58.868Z,976.85
2019-04-07T02:01:59.363Z,976.85
2019-04-07T02:02:58.839Z,976.84
2019-04-07T02:03:58.913Z,976.84
2019-04-07T02:04:58.933Z,976.86
2019-04-07T02:06:01.953Z,976.84
2019-04-07T02:06:58.811Z,976.85
2019-04-07T02:07:59.143Z,976.83
2019-04-07T02:08:58.813Z,976.79
2019-04-07T02:09:58.785Z,976.78
2019-04-07T02:10:59.110Z,976.79
2019-04-07T02:11:59.389Z,976.79
2019-04-07T02:12:58.765Z,976.79
2019-04-07T02:13:59.293Z,976.81
2019-04-07T02:14:58.750Z,976.75
2019-04-07T02:15:59.067Z,976.77
2019-04-07T02:16:59.326Z,976.8
2019-04-07T02:17:59.320Z,976.83
2019-04-07T02:18:58.720Z,976.82
2019-04-07T02:19:58.713Z,976.84
2019-04-07T02:20:58.990Z,976.85
2019-04-07T02:21:59.171Z,976.82
2019-04-07T02:22:58.698Z,976.88
2019-04-07T02:23:59.066Z,976.84
2019-04-07T02:24:59.238Z,976.88
2019-04-07T02:25:59.318Z,976.87
2019-04-07T02:26:58.679Z,976.81
2019-04-07T02:27:58.655Z,976.88
2019-04-07T02:28:58.646Z,976.79
2019-04-07T02:29:58.880Z,976.8
2019-04-07T02:30:58.944Z,976.76
2019-04-07T02:31:58.665Z,976.8
2019-04-07T02:32:58.619Z,976.75
2019-04-07T02:33:59.605Z,976.77
2019-04-07T02:34:59.246Z,976.76
2019-04-07T02:36:13.238Z,976.81
2019-04-07T02:36:58.588Z,976.81
2019-04-07T02:37:58.603Z,976.81
2019-04-07T02:38:58.575Z,976.84
2019-04-07T02:39:58.786Z,976.82
2019-04-07T02:40:58.560Z,976.84
2019-04-07T02:41:58.552Z,976.86
2019-04-07T02:42:58.924Z,976.87
2019-04-07T02:43:59.582Z,976.88
2019-04-07T02:44:59.301Z,976.85
2019-04-07T02:45:58.528Z,976.84
2019-04-07T02:46:58.800Z,976.87
2019-04-07T02:47:58.508Z,976.83
2019-04-07T02:48:58.633Z,976.8
2019-04-07T02:49:59.309Z,976.85
2019-04-07T02:50:58.725Z,976.83
2019-04-07T02:51:58.523Z,976.82
2019-04-07T02:52:59.376Z,976.79
2019-04-07T02:53:59.355Z,976.79
2019-04-07T02:54:59.225Z,976.8
2019-04-07T02:55:58.461Z,976.79
2019-04-07T02:56:58.438Z,976.81
2019-04-07T02:57:58.566Z,976.82
2019-04-07T02:58:59.377Z,976.84
2019-04-07T02:59:58.417Z,976.85
2019-04-07T03:00:58.407Z,976.87
2019-04-07T03:01:59.278Z,976.88
2019-04-07T03:02:58.393Z,976.83
2019-04-07T03:03:58.385Z,976.86
2019-04-07T03:04:58.628Z,976.81
2019-04-07T03:05:58.369Z,976.86
2019-04-07T03:06:58.727Z,976.84
2019-04-07T03:07:59.391Z,976.82
2019-04-07T03:08:59.296Z,976.81
2019-04-07T03:09:58.337Z,976.84
2019-04-07T03:10:58.674Z,976.86
2019-04-07T03:11:58.326Z,976.82
2019-04-07T03:12:58.778Z,976.84
2019-04-07T03:13:58.677Z,976.85
2019-04-07T03:14:58.513Z,976.84
2019-04-07T03:15:58.292Z,976.87
2019-04-07T03:16:58.293Z,976.84
2019-04-07T03:17:58.276Z,976.89
2019-04-07T03:18:58.269Z,976.87
2019-04-07T03:19:58.263Z,976.89
2019-04-07T03:20:59.158Z,976.88
2019-04-07T03:21:58.247Z,976.91
2019-04-07T03:22:58.802Z,976.94
2019-04-07T03:23:58.550Z,976.99
2019-04-07T03:24:58.402Z,977.01
2019-04-07T03:25:58.279Z,977.03
2019-04-07T03:26:58.206Z,977.05
2019-04-07T03:27:58.197Z,977.05
2019-04-07T03:28:58.200Z,977.06
2019-04-07T03:29:58.844Z,977.04
2019-04-07T03:30:58.998Z,977.08
2019-04-07T03:31:59.474Z,977.07
2019-04-07T03:33:00.420Z,977.02
2019-04-07T03:33:59.409Z,977.03
2019-04-07T03:34:58.362Z,977
2019-04-07T03:36:01.612Z,977.01
2019-04-07T03:37:25.464Z,977.05
2019-04-07T03:37:59.200Z,977.03
2019-04-07T03:38:58.982Z,977.04
2019-04-07T03:39:58.859Z,977.06
2019-04-07T03:40:58.964Z,977.09
2019-04-07T03:41:59.168Z,977.09
2019-04-07T03:42:58.082Z,977.11
2019-04-07T03:43:59.125Z,977.09
2019-04-07T03:44:58.664Z,977.09
2019-04-07T03:45:59.017Z,977.14
2019-04-07T03:46:58.916Z,977.12
2019-04-07T03:47:58.883Z,977.12
2019-04-07T03:48:58.121Z,977.13
2019-04-07T03:49:58.050Z,977.16
2019-04-07T03:50:59.899Z,977.16
2019-04-07T03:51:58.182Z,977.17
2019-04-07T03:52:58.430Z,977.2
2019-04-07T03:53:57.996Z,977.23
2019-04-07T03:54:58.751Z,977.22
2019-04-07T03:55:57.981Z,977.22
2019-04-07T03:56:58.381Z,977.2
2019-04-07T03:57:57.968Z,977.2
2019-04-07T03:58:58.000Z,977.19
2019-04-07T03:59:57.957Z,977.21
2019-04-07T04:00:58.031Z,977.18
2019-04-07T04:01:57.946Z,977.2
2019-04-07T04:02:57.925Z,977.22
2019-04-07T04:03:59.140Z,977.2
2019-04-07T04:04:57.908Z,977.23
2019-04-07T04:05:57.899Z,977.23
2019-04-07T04:06:57.916Z,977.23
2019-04-07T04:07:57.973Z,977.2
2019-04-07T04:08:58.612Z,977.23
2019-04-07T04:09:58.206Z,977.23
2019-04-07T04:10:58.070Z,977.27
2019-04-07T04:11:57.921Z,977.27
2019-04-07T04:12:58.629Z,977.32
2019-04-07T04:13:58.221Z,977.26
2019-04-07T04:14:58.855Z,977.3
2019-04-07T04:15:58.682Z,977.31
2019-04-07T04:16:57.966Z,977.33
2019-04-07T04:17:57.807Z,977.28
2019-04-07T04:18:58.676Z,977.33
2019-04-07T04:19:58.599Z,977.32
2019-04-07T04:20:57.775Z,977.35
2019-04-07T04:21:58.744Z,977.36
2019-04-07T04:22:58.284Z,977.36
2019-04-07T04:23:57.833Z,977.33
2019-04-07T04:24:57.826Z,977.38
2019-04-07T04:25:57.748Z,977.36
2019-04-07T04:26:57.733Z,977.35
2019-04-07T04:27:57.721Z,977.42
2019-04-07T04:28:58.308Z,977.39
2019-04-07T04:29:57.709Z,977.44
2019-04-07T04:30:57.894Z,977.44
2019-04-07T04:31:57.714Z,977.45
2019-04-07T04:32:57.789Z,977.46
2019-04-07T04:33:57.973Z,977.49
2019-04-07T04:34:57.750Z,977.48
2019-04-07T04:35:57.657Z,977.5
2019-04-07T04:36:57.647Z,977.55
2019-04-07T04:37:57.781Z,977.54
2019-04-07T04:38:57.941Z,977.56
2019-04-07T04:39:57.624Z,977.58
2019-04-07T04:40:58.100Z,977.57
2019-04-07T04:41:57.727Z,977.61
2019-04-07T04:42:58.146Z,977.62
2019-04-07T04:43:57.998Z,977.62
2019-04-07T04:44:58.729Z,977.66
2019-04-07T04:45:57.573Z,977.68
2019-04-07T04:46:58.355Z,977.68
2019-04-07T04:47:57.556Z,977.73
2019-04-07T04:48:58.730Z,977.74
2019-04-07T04:49:57.815Z,977.74
2019-04-07T04:50:58.022Z,977.74
2019-04-07T04:51:58.549Z,977.75
2019-04-07T04:52:57.523Z,977.74
2019-04-07T04:53:58.126Z,977.76
2019-04-07T04:54:57.501Z,977.75
2019-04-07T04:55:57.654Z,977.77
2019-04-07T04:56:57.484Z,977.77
2019-04-07T04:57:57.806Z,977.79
2019-04-07T04:58:57.469Z,977.79
2019-04-07T04:59:58.005Z,977.79
2019-04-07T05:00:57.745Z,977.79
2019-04-07T05:01:57.443Z,977.83
2019-04-07T05:02:58.097Z,977.84
2019-04-07T05:03:57.433Z,977.86
2019-04-07T05:04:57.536Z,977.83
2019-04-07T05:05:57.723Z,977.88
2019-04-07T05:06:58.064Z,977.89
2019-04-07T05:08:01.713Z,977.88
2019-04-07T05:08:57.755Z,977.88
2019-04-07T05:09:57.382Z,977.92
2019-04-07T05:10:57.595Z,977.94
2019-04-07T05:11:57.546Z,977.95
2019-04-07T05:12:57.358Z,977.95
2019-04-07T05:13:58.097Z,977.96
2019-04-07T05:14:57.342Z,977.97
2019-04-07T05:15:57.336Z,978.01
2019-04-07T05:16:57.330Z,978.03
2019-04-07T05:17:57.387Z,978.04
2019-04-07T05:18:57.378Z,978.08
2019-04-07T05:19:57.667Z,978.07
2019-04-07T05:20:57.490Z,978.09
2019-04-07T05:21:57.296Z,978.08
2019-04-07T05:22:57.600Z,978.1
2019-04-07T05:23:57.282Z,978.1
2019-04-07T05:24:57.574Z,978.04
2019-04-07T05:25:57.267Z,978.08
2019-04-07T05:26:57.363Z,978.08
2019-04-07T05:27:57.836Z,978.1
2019-04-07T05:28:57.259Z,978.11
2019-04-07T05:29:57.335Z,978.13
2019-04-07T05:30:57.952Z,978.13
2019-04-07T05:31:57.230Z,978.13
2019-04-07T05:32:57.463Z,978.11
2019-04-07T05:33:57.490Z,978.09
2019-04-07T05:34:57.855Z,978.13
2019-04-07T05:35:57.215Z,978.13
2019-04-07T05:36:57.562Z,978.16
2019-04-07T05:38:02.598Z,978.16
2019-04-07T05:38:57.479Z,978.18
2019-04-07T05:39:57.202Z,978.19
2019-04-07T05:40:57.453Z,978.19
2019-04-07T05:41:57.186Z,978.15
2019-04-07T05:42:57.182Z,978.18
2019-04-07T05:43:57.178Z,978.17
2019-04-07T05:44:57.177Z,978.15
2019-04-07T05:45:57.587Z,978.17
2019-04-07T05:46:57.174Z,978.17
2019-04-07T05:47:57.841Z,978.18
2019-04-07T05:48:57.563Z,978.17
2019-04-07T05:49:58.693Z,978.18
2019-04-07T05:50:59.877Z,978.21
2019-04-07T05:51:58.886Z,978.23
2019-04-07T05:52:57.548Z,978.21
2019-04-07T05:53:57.171Z,978.23
2019-04-07T05:54:57.837Z,978.23
2019-04-07T05:55:57.734Z,978.28
2019-04-07T05:57:00.276Z,978.28
2019-04-07T05:57:57.542Z,978.24
2019-04-07T05:58:57.173Z,978.26
2019-04-07T05:59:57.121Z,978.26
2019-04-07T06:00:57.131Z,978.29
2019-04-07T06:02:00.625Z,978.32
2019-04-07T06:02:57.099Z,978.32
2019-04-07T06:03:57.732Z,978.29
2019-04-07T06:04:58.562Z,978.31
2019-04-07T06:05:57.974Z,978.34
2019-04-07T06:06:57.098Z,978.32
2019-04-07T06:07:59.053Z,978.37
2019-04-07T06:08:57.617Z,978.34
2019-04-07T06:09:57.077Z,978.36
2019-04-07T06:11:00.381Z,978.38
2019-04-07T06:11:57.694Z,978.38
2019-04-07T06:12:57.369Z,978.4
2019-04-07T06:13:57.474Z,978.38
2019-04-07T06:14:57.278Z,978.38
2019-04-07T06:15:57.551Z,978.39
2019-04-07T06:16:57.032Z,978.4
2019-04-07T06:18:00.352Z,978.37
2019-04-07T06:18:57.706Z,978.39
2019-04-07T06:19:57.694Z,978.42
2019-04-07T06:20:57.015Z,978.44
2019-04-07T06:21:57.068Z,978.4
2019-04-07T06:22:57.555Z,978.42
2019-04-07T06:23:59.775Z,978.42
2019-04-07T06:24:56.989Z,978.39
2019-04-07T06:25:59.003Z,978.41
2019-04-07T06:26:57.492Z,978.43
2019-04-07T06:27:56.972Z,978.42
2019-04-07T06:28:58.692Z,978.37
2019-04-07T06:29:59.663Z,978.38
2019-04-07T06:30:59.142Z,978.37
2019-04-07T06:31:57.709Z,978.36
2019-04-07T06:32:57.044Z,978.33
2019-04-07T06:33:56.943Z,978.32
2019-04-07T06:34:56.940Z,978.33
2019-04-07T06:35:57.389Z,978.34
2019-04-07T06:36:56.927Z,978.39
2019-04-07T06:38:00.069Z,978.39
2019-04-07T06:38:56.920Z,978.41
2019-04-07T06:39:57.660Z,978.42
2019-04-07T06:40:58.935Z,978.45
2019-04-07T06:41:58.859Z,978.42
2019-04-07T06:42:56.901Z,978.46
2019-04-07T06:44:08.597Z,978.44
2019-04-07T06:44:59.697Z,978.45
2019-04-07T06:45:57.348Z,978.47
2019-04-07T06:46:59.055Z,978.48
2019-04-07T06:47:56.878Z,978.44
2019-04-07T06:48:56.876Z,978.46
2019-04-07T06:49:57.505Z,978.4
2019-04-07T06:50:59.245Z,978.4
2019-04-07T06:52:00.616Z,978.41
2019-04-07T06:52:56.858Z,978.38
2019-04-07T06:53:56.962Z,978.39
2019-04-07T06:54:57.127Z,978.42
2019-04-07T06:55:59.907Z,978.43
2019-04-07T06:56:56.845Z,978.39
2019-04-07T06:57:57.110Z,978.41
2019-04-07T06:58:56.839Z,978.41
2019-04-07T06:59:56.838Z,978.45
2019-04-07T07:00:57.787Z,978.43
2019-04-07T07:01:59.111Z,978.43
2019-04-07T07:02:58.851Z,978.37
2019-04-07T07:03:57.497Z,978.39
2019-04-07T07:04:57.204Z,978.41
2019-04-07T07:05:57.296Z,978.34
2019-04-07T07:06:56.931Z,978.32
2019-04-07T07:07:57.311Z,978.32
2019-04-07T07:08:57.388Z,978.25
2019-04-07T07:09:59.766Z,978.22
2019-04-07T07:10:57.340Z,978.25
2019-04-07T07:11:57.238Z,978.29
2019-04-07T07:12:59.848Z,978.29
2019-04-07T07:13:56.847Z,978.28
2019-04-07T07:14:58.248Z,978.33
2019-04-07T07:15:57.282Z,978.35
2019-04-07T07:16:56.833Z,978.35
2019-04-07T07:17:58.967Z,978.42
2019-04-07T07:18:56.997Z,978.36
2019-04-07T07:19:57.981Z,978.37
2019-04-07T07:20:57.986Z,978.37
2019-04-07T07:21:56.864Z,978.36
2019-04-07T07:22:57.240Z,978.4
2019-04-07T07:23:56.878Z,978.42
2019-04-07T07:24:59.833Z,978.44
2019-04-07T07:26:00.846Z,978.45
2019-04-07T07:26:57.908Z,978.39
2019-04-07T07:27:56.840Z,978.41
2019-04-07T07:28:57.514Z,978.4
2019-04-07T07:29:56.842Z,978.41
2019-04-07T07:30:56.833Z,978.35
2019-04-07T07:32:01.856Z,978.36
2019-04-07T07:32:56.864Z,978.29
2019-04-07T07:33:57.155Z,978.37
2019-04-07T07:34:57.540Z,978.37
2019-04-07T07:35:57.020Z,978.39
2019-04-07T07:36:58.019Z,978.38
2019-04-07T07:37:59.280Z,978.43
2019-04-07T07:39:01.645Z,978.45
2019-04-07T07:39:56.953Z,978.5
2019-04-07T07:40:56.997Z,978.46
2019-04-07T07:41:56.853Z,978.46
2019-04-07T07:42:58.949Z,978.43
2019-04-07T07:44:00.621Z,978.47
2019-04-07T07:44:57.074Z,978.49
2019-04-07T07:45:56.862Z,978.52
2019-04-07T07:46:57.070Z,978.55
2019-04-07T07:47:57.599Z,978.52
2019-04-07T07:48:59.168Z,978.54
2019-04-07T07:49:57.545Z,978.55
2019-04-07T07:50:56.874Z,978.59
2019-04-07T07:51:57.052Z,978.54
2019-04-07T07:52:57.109Z,978.49
2019-04-07T07:53:59.048Z,978.53
2019-04-07T07:54:59.721Z,978.5
2019-04-07T07:55:57.583Z,978.55
2019-04-07T07:56:57.092Z,978.54
2019-04-07T07:57:58.994Z,978.52
2019-04-07T07:58:59.828Z,978.53
2019-04-07T07:59:57.365Z,978.55
2019-04-07T08:00:59.595Z,978.52
2019-04-07T08:01:57.547Z,978.48
2019-04-07T08:02:56.906Z,978.46
2019-04-07T08:03:56.908Z,978.49
2019-04-07T08:04:59.094Z,978.45
2019-04-07T08:05:57.796Z,978.42
2019-04-07T08:06:56.976Z,978.43
2019-04-07T08:07:56.916Z,978.47
2019-04-07T08:09:06.655Z,978.41
2019-04-07T08:09:58.020Z,978.44
2019-04-07T08:10:59.738Z,978.44
2019-04-07T08:11:57.698Z,978.41
2019-04-07T08:12:57.412Z,978.45
2019-04-07T08:13:56.911Z,978.47
2019-04-07T08:14:58.304Z,978.47
2019-04-07T08:15:58.521Z,978.45
2019-04-07T08:17:00.095Z,978.45
2019-04-07T08:17:57.372Z,978.47
2019-04-07T08:18:59.181Z,978.47
2019-04-07T08:19:56.916Z,978.48
2019-04-07T08:20:56.919Z,978.52
2019-04-07T08:21:57.296Z,978.49
2019-04-07T08:22:57.164Z,978.54
2019-04-07T08:23:56.918Z,978.49
2019-04-07T08:24:57.014Z,978.51
2019-04-07T08:25:57.805Z,978.5
2019-04-07T08:26:58.309Z,978.48
2019-04-07T08:27:57.435Z,978.49
2019-04-07T08:28:56.920Z,978.45
2019-04-07T08:29:57.189Z,978.54
2019-04-07T08:30:57.518Z,978.53
2019-04-07T08:31:57.483Z,978.53
2019-04-07T08:32:59.123Z,978.55
2019-04-07T08:33:59.624Z,978.57
2019-04-07T08:34:57.009Z,978.52
2019-04-07T08:35:56.934Z,978.52
2019-04-07T08:36:57.419Z,978.54
2019-04-07T08:37:57.592Z,978.52
2019-04-07T08:38:57.180Z,978.48
2019-04-07T08:39:57.951Z,978.48
2019-04-07T08:40:57.596Z,978.47
2019-04-07T08:41:57.211Z,978.45
2019-04-07T08:42:57.277Z,978.48
2019-04-07T08:43:57.898Z,978.46
2019-04-07T08:44:59.264Z,978.43
2019-04-07T08:45:57.842Z,978.47
2019-04-07T08:46:58.150Z,978.49
2019-04-07T08:47:56.966Z,978.49
2019-04-07T08:48:56.956Z,978.42
2019-04-07T08:49:57.820Z,978.46
2019-04-07T08:50:58.658Z,978.48
2019-04-07T08:51:57.159Z,978.48
2019-04-07T08:52:59.009Z,978.46
2019-04-07T08:53:57.451Z,978.42
2019-04-07T08:54:57.791Z,978.49
2019-04-07T08:55:57.043Z,978.49
2019-04-07T08:56:58.240Z,978.48
2019-04-07T08:58:00.027Z,978.52
2019-04-07T08:58:56.958Z,978.5
2019-04-07T08:59:57.530Z,978.53
2019-04-07T09:00:57.284Z,978.51
2019-04-07T09:01:57.024Z,978.55
2019-04-07T09:03:02.808Z,978.54
2019-04-07T09:03:56.958Z,978.58
2019-04-07T09:04:57.004Z,978.57
2019-04-07T09:05:57.722Z,978.58
2019-04-07T09:06:59.339Z,978.56
2019-04-07T09:07:57.354Z,978.55
2019-04-07T09:08:57.367Z,978.56
2019-04-07T09:09:57.749Z,978.62
2019-04-07T09:10:56.963Z,978.56
2019-04-07T09:11:57.545Z,978.55
2019-04-07T09:13:00.588Z,978.55
2019-04-07T09:13:57.112Z,978.58
2019-04-07T09:14:57.031Z,978.55
2019-04-07T09:15:56.945Z,978.57
2019-04-07T09:16:58.105Z,978.54
2019-04-07T09:17:57.719Z,978.59
2019-04-07T09:19:01.017Z,978.56
2019-04-07T09:19:57.154Z,978.56
2019-04-07T09:20:57.213Z,978.58
2019-04-07T09:21:57.068Z,978.56
2019-04-07T09:22:58.133Z,978.57
2019-04-07T09:23:57.795Z,978.57
2019-04-07T09:24:57.698Z,978.59
2019-04-07T09:25:57.284Z,978.58
2019-04-07T09:26:57.760Z,978.61
2019-04-07T09:27:57.241Z,978.62
2019-04-07T09:28:57.395Z,978.59
2019-04-07T09:29:58.130Z,978.67
2019-04-07T09:30:56.940Z,978.6
2019-04-07T09:31:57.558Z,978.61
2019-04-07T09:32:56.932Z,978.61
2019-04-07T09:33:57.193Z,978.64
2019-04-07T09:34:57.220Z,978.68
2019-04-07T09:35:59.191Z,978.68
2019-04-07T09:36:56.925Z,978.68
2019-04-07T09:37:57.535Z,978.75
2019-04-07T09:38:58.438Z,978.69
2019-04-07T09:40:00.457Z,978.7
2019-04-07T09:40:57.223Z,978.74
2019-04-07T09:41:57.204Z,978.72
2019-04-07T09:42:59.677Z,978.73
2019-04-07T09:43:57.147Z,978.72
2019-04-07T09:44:57.454Z,978.7
2019-04-07T09:45:57.251Z,978.75
2019-04-07T09:46:57.462Z,978.73
2019-04-07T09:47:57.559Z,978.76
2019-04-07T09:48:57.596Z,978.77
2019-04-07T09:49:58.134Z,978.76
2019-04-07T09:51:01.349Z,978.76
2019-04-07T09:51:57.408Z,978.8
2019-04-07T09:52:56.923Z,978.77
2019-04-07T09:53:57.506Z,978.79
2019-04-07T09:54:57.392Z,978.8
2019-04-07T09:55:57.937Z,978.8
2019-04-07T09:56:57.261Z,978.79
2019-04-07T09:57:57.026Z,978.79
2019-04-07T09:58:56.922Z,978.8
2019-04-07T09:59:56.920Z,978.79
2019-04-07T10:00:57.615Z,978.75
2019-04-07T10:01:59.264Z,978.77
2019-04-07T10:02:56.921Z,978.77
2019-04-07T10:03:56.920Z,978.77
2019-04-07T10:04:56.924Z,978.77
2019-04-07T10:05:56.921Z,978.82
2019-04-07T10:06:56.921Z,978.8
2019-04-07T10:07:56.926Z,978.81
2019-04-07T10:08:57.034Z,978.81
2019-04-07T10:10:05.927Z,978.77
2019-04-07T10:10:57.242Z,978.79
2019-04-07T10:11:56.926Z,978.78
2019-04-07T10:12:57.590Z,978.77
2019-04-07T10:13:57.713Z,978.78
2019-04-07T10:14:57.523Z,978.77
2019-04-07T10:15:57.401Z,978.8
2019-04-07T10:16:57.379Z,978.83
2019-04-07T10:17:57.595Z,978.8
2019-04-07T10:18:57.545Z,978.76
2019-04-07T10:19:56.934Z,978.79
2019-04-07T10:20:57.651Z,978.74
2019-04-07T10:21:56.940Z,978.72
2019-04-07T10:22:57.474Z,978.68
2019-04-07T10:23:57.436Z,978.68
2019-04-07T10:24:57.142Z,978.7
2019-04-07T10:25:57.335Z,978.67
2019-04-07T10:26:56.938Z,978.67
2019-04-07T10:27:56.975Z,978.65
2019-04-07T10:28:56.947Z,978.64
2019-04-07T10:29:56.948Z,978.65
2019-04-07T10:30:56.951Z,978.65
2019-04-07T10:31:57.614Z,978.61
2019-04-07T10:32:57.386Z,978.62
2019-04-07T10:33:57.210Z,978.61
2019-04-07T10:34:57.745Z,978.6
2019-04-07T10:35:56.945Z,978.62
2019-04-07T10:36:57.225Z,978.54
2019-04-07T10:37:56.991Z,978.63
2019-04-07T10:38:56.945Z,978.6
2019-04-07T10:39:58.406Z,978.62
2019-04-07T10:40:57.563Z,978.61
2019-04-07T10:41:56.953Z,978.58
2019-04-07T10:42:57.587Z,978.56
2019-04-07T10:43:57.792Z,978.53
2019-04-07T10:44:57.212Z,978.55
2019-04-07T10:45:57.101Z,978.53
2019-04-07T10:46:56.954Z,978.55
2019-04-07T10:47:57.770Z,978.56
2019-04-07T10:48:56.945Z,978.53
2019-04-07T10:50:00.321Z,978.58
2019-04-07T10:50:56.947Z,978.54
2019-04-07T10:51:57.038Z,978.53
2019-04-07T10:52:57.916Z,978.5
2019-04-07T10:53:57.254Z,978.54
2019-04-07T10:54:56.948Z,978.53
2019-04-07T10:55:57.443Z,978.59
2019-04-07T10:56:56.961Z,978.58
2019-04-07T10:57:57.226Z,978.58
2019-04-07T10:58:56.956Z,978.61
2019-04-07T10:59:56.950Z,978.66
2019-04-07T11:00:56.950Z,978.64
2019-04-07T11:01:57.798Z,978.64
2019-04-07T11:02:57.271Z,978.68
2019-04-07T11:03:57.652Z,978.74
2019-04-07T11:04:57.328Z,978.76
2019-04-07T11:05:57.156Z,978.8
2019-04-07T11:06:57.514Z,978.74
2019-04-07T11:07:57.041Z,978.79
2019-04-07T11:08:57.687Z,978.77
2019-04-07T11:09:57.551Z,978.67
2019-04-07T11:10:56.955Z,978.75
2019-04-07T11:11:56.957Z,978.67
2019-04-07T11:12:57.157Z,978.65
2019-04-07T11:13:56.958Z,978.59
2019-04-07T11:14:57.127Z,978.59
2019-04-07T11:15:57.597Z,978.52
2019-04-07T11:16:56.961Z,978.57
2019-04-07T11:17:57.080Z,978.59
2019-04-07T11:18:56.967Z,978.59
2019-04-07T11:19:56.963Z,978.57
2019-04-07T11:20:57.207Z,978.61
2019-04-07T11:21:56.965Z,978.57
2019-04-07T11:22:57.525Z,978.54
2019-04-07T11:23:57.719Z,978.54
2019-04-07T11:24:57.477Z,978.55
2019-04-07T11:25:56.966Z,978.55
2019-04-07T11:26:56.967Z,978.56
2019-04-07T11:27:56.970Z,978.59
2019-04-07T11:28:56.972Z,978.56
2019-04-07T11:29:57.418Z,978.56
2019-04-07T11:30:57.428Z,978.55
2019-04-07T11:31:56.981Z,978.52
2019-04-07T11:32:57.583Z,978.52
2019-04-07T11:33:57.200Z,978.53
2019-04-07T11:34:57.282Z,978.52
2019-04-07T11:35:57.442Z,978.46
2019-04-07T11:36:57.125Z,978.51
2019-04-07T11:37:57.160Z,978.46
2019-04-07T11:38:57.009Z,978.42
2019-04-07T11:39:57.714Z,978.44
2019-04-07T11:40:57.731Z,978.44
2019-04-07T11:41:57.396Z,978.43
2019-04-07T11:42:57.684Z,978.44
2019-04-07T11:43:57.486Z,978.4
2019-04-07T11:44:57.518Z,978.38
2019-04-07T11:46:01.238Z,978.43
2019-04-07T11:46:57.490Z,978.5
2019-04-07T11:47:57.010Z,978.45
2019-04-07T11:48:57.789Z,978.46
2019-04-07T11:49:57.201Z,978.42
2019-04-07T11:50:57.617Z,978.36
2019-04-07T11:51:57.570Z,978.43
2019-04-07T11:52:57.302Z,978.38
2019-04-07T11:53:57.607Z,978.39
2019-04-07T11:54:57.279Z,978.36
2019-04-07T11:55:57.658Z,978.38
2019-04-07T11:56:57.327Z,978.41
2019-04-07T11:58:07.964Z,978.31
2019-04-07T11:58:57.303Z,978.41
2019-04-07T11:59:57.576Z,978.44
2019-04-07T12:00:57.189Z,978.45
2019-04-07T12:01:57.006Z,978.46
2019-04-07T12:02:57.005Z,978.46
2019-04-07T12:03:57.174Z,978.43
2019-04-07T12:04:57.622Z,978.43
2019-04-07T12:05:57.116Z,978.42
2019-04-07T12:06:58.016Z,978.39
2019-04-07T12:07:58.478Z,978.44
2019-04-07T12:08:57.091Z,978.45
2019-04-07T12:09:57.012Z,978.44
2019-04-07T12:11:01.947Z,978.47
2019-04-07T12:11:57.209Z,978.4
2019-04-07T12:12:57.617Z,978.45
2019-04-07T12:13:57.029Z,978.45
2019-04-07T12:14:57.785Z,978.44
2019-04-07T12:15:57.966Z,978.39
2019-04-07T12:16:59.179Z,978.4
2019-04-07T12:17:57.015Z,978.51
2019-04-07T12:18:57.808Z,978.49
2019-04-07T12:19:58.042Z,978.44
2019-04-07T12:21:00.876Z,978.45
2019-04-07T12:21:57.832Z,978.46
2019-04-07T12:22:57.017Z,978.42
2019-04-07T12:23:57.020Z,978.42
2019-04-07T12:25:00.383Z,978.45
2019-04-07T12:25:57.613Z,978.39
2019-04-07T12:26:59.791Z,978.46
2019-04-07T12:27:57.022Z,978.47
2019-04-07T12:28:57.034Z,978.52
2019-04-07T12:29:57.034Z,978.53
2019-04-07T12:30:57.032Z,978.47